Terminal Aerodrome Forecast
Issued by NWS Charleston, WV

Current Version | Previous Version | Text Only | Print | Product List | Glossary Off
Versions: 1 2 3 4 5 6 7 8 9 10 11 12 13 14 15 16 17 18 19 20 21 22 23 24 25 26 27 28 29 30

000
FTUS41 KRLX 200149 AAA
TAFEKN
TAF AMD
KEKN 200149Z 2002/2024 VRB03KT P6SM VCTS SCT040CB
     FM200300 00000KT P6SM SCT060
     FM200400 00000KT 4SM BR SKC
     FM200600 00000KT 1/4SM FG VV001
     FM201300 00000KT 1SM BR BKN002
     FM201400 00000KT 5SM BR SKC
     FM201500 VRB03KT P6SM SKC
     FM201600 VRB04KT P6SM SCT040
     FM202300 00000KT P6SM SKC=

USA.gov is the U.S. government's official web portal to all federal, state and local government web resources and services.